This is the latest recevied weather packets stored in our database for station/object MM0ZFG-5. If no packets are shown the sender has not sent any weather packets the latest 10 day(s).
| Time | Temp. | Humidity | Pressure | Rain* | Wind** | Luminosity | Snow |
|---|---|---|---|---|---|---|---|
| 1777748044 | 12.22° C | 80% | 1009 hPa | 0 mm | - | - | - |
| 1777747504 | 12.22° C | 80% | 1009.1 hPa | 0 mm | - | - | - |
| 1777746964 | 12.78° C | 79% | 1009.1 hPa | 0 mm | - | - | - |
| 1777742284 | 13.89° C | 77% | 1009.2 hPa | 0 mm | - | - | - |
| 1777738145 | 13.89° C | 77% | 1009.3 hPa | 0 mm | - | - | - |
| 1777735645 | 13.33° C | 78% | 1009.8 hPa | 0 mm | - | - | - |
| 1777733665 | 13.89° C | 80% | 1010.1 hPa | 0 mm | - | - | - |
| 1777729503 | 12.78° C | 83% | 1010.4 hPa | 0 mm | - | - | - |
| 1777717084 | 12.22° C | 85% | 1011.1 hPa | 0 mm | - | - | - |
| 1777714045 | 11.67° C | 86% | 1010.9 hPa | 0 mm | - | - | - |
| 1777711504 | 11.67° C | 87% | 1011.1 hPa | 0 mm | - | - | - |
| 1777708466 | 11.11° C | 91% | 1010.9 hPa | 0 mm | - | - | - |
| 1777707904 | 10.56° C | 91% | 1011 hPa | 0 mm | - | - | - |
| 1777705744 | 10.56° C | 91% | 1010.8 hPa | 0 mm | - | - | - |
| 1777703764 | 10.56° C | 92% | 1010.8 hPa | 0 mm | - | - | - |
| 1777700704 | 10° C | 91% | 1010.8 hPa | 0 mm | - | - | - |
| 1777694044 | 10° C | 90% | 1010.6 hPa | 0 mm | - | - | - |
| 1777693504 | 10° C | 89% | 1010.9 hPa | 0 mm | - | - | - |
| 1777690465 | 10° C | 88% | 1011.2 hPa | 0 mm | - | - | - |
| 1777689903 | 10° C | 88% | 1011.3 hPa | 0 mm | - | - | - |
| 1777686843 | 10.56° C | 88% | 1011.6 hPa | 0 mm | - | - | - |
| 1777686305 | 10.56° C | 88% | 1011.7 hPa | 0 mm | - | - | - |
| 1777683245 | 10.56° C | 87% | 1012.4 hPa | 0 mm | - | - | - |
| 1777680544 | 10.56° C | 88% | 1012.4 hPa | 0 mm | - | - | - |
| 1777678044 | 10° C | 88% | 1012.4 hPa | 0 mm | - | - | - |
* Rain latest hour (hover to see other rain measurements)
** Current wind speed in m/s (hover to see current wind gust speed)